Wednesday, January 17, 2018, 11:23 AM GMT
Back to Local

CYGK, Kingston, Ont.

Location: , , Canada Lat: 44.217
Local Time: 11:23 AM GMT (11:23 GMT) Lon: -76.6
Time Zone: GMT Elev: 305 ft

Show me the last for .
Show Coded

Time T Td Feel RH Dir Speed Gust Alt SLP Vis Weather Sky Remarks
2018-01-17 11:00 16 12 10 85 220° 3 - 30.36 30.38 4 -SN SCT008 OVC023 None
2018-01-17 04:00 12 9 2 85 100° 7 - 30.38 30.40 15 BKN037 OVC050 None
2018-01-17 03:00 9 7 2 92 30° 3 - 30.40 30.42 15 BKN041 None
2018-01-17 02:00 9 7 0 92 50° 5 - 30.39 30.42 15 BKN050 None
2018-01-17 01:00 12 9 3 85 20° 6 - 30.40 30.43 15 BKN050 None
2018-01-17 00:00 12 9 6 85 30° 3 - 30.41 30.44 15 BKN051 None
2018-01-16 23:00 14 10 - 85 - Calm - 30.39 30.42 15 SCT050 None
2018-01-16 22:00 14 10 - 85 110° 2 - 30.38 30.41 15 FEW020 BKN054 None
2018-01-16 21:00 16 12 - 85 150° 2 - 30.38 30.40 15 FEW010 BKN055 BKN250 None
2018-01-16 20:00 18 12 - 78 Variable 2 - 30.37 30.40 5 -SN SCT019 OVC033 None
2018-01-16 19:50 18 12 12 78 100° 3 - 30.37 30.40 8 -SN FEW018 OVC039 None
2018-01-16 19:00 18 10 9 72 60° 6 - 30.36 30.38 12 FEW020 SCT060 BKN250 None
2018-01-16 18:00 16 9 6 72 60° 7 - 30.36 30.39 10 FEW008 SCT020 OVC060 None
2018-01-16 17:25 14 9 5 78 10° 6 - 30.37 30.40 10 SCT008 BKN020 OVC065 None
2018-01-16 17:00 14 7 6 72 30° 5 - 30.39 30.41 4 -SN SCT008 BKN021 None
2018-01-16 16:00 12 7 3 78 20° 6 - 30.40 30.43 2 -SN BKN008 OVC018 None
2018-01-16 15:00 10 5 -2 78 30° 8 - 30.41 30.43 1 -SN BKN008 OVC021 None
2018-01-16 14:41 10 5 0 78 20° 7 - 30.41 30.43 1 -SN BKN008 OVC022 None
2018-01-16 14:38 10 5 0 78 20° 7 - 30.41 30.43 2 -SN BKN008 OVC023 None
2018-01-16 14:00 9 3 -5 78 30° 9 - 30.39 30.42 3 -SN BKN007 OVC022 None
2018-01-16 13:00 7 3 -6 84 30° 8 - 30.39 30.41 10 -SN BKN008 OVC022 None
2018-01-16 12:00 7 3 -6 84 20° 8 - 30.39 30.42 8 -SN OVC010 None

Support USWX by starting your Amazon purchase here.